createdAt,value
2022-11-05T00:03:47.056Z,72.8194
2022-11-05T00:08:48.686Z,73.30863
2022-11-05T00:13:50.297Z,74.23728
2022-11-05T00:18:52.020Z,72.33952
2022-11-05T00:23:53.661Z,74.03964
2022-11-05T00:28:55.309Z,73.19727
2022-11-05T00:33:56.981Z,71.26408
2022-11-05T00:38:58.676Z,67.63503
2022-11-05T00:44:00.293Z,68.63317
2022-11-05T00:49:01.980Z,68.35929
2022-11-05T00:54:03.672Z,70.43155
2022-11-05T00:59:05.290Z,70.91417
2022-11-05T01:04:06.896Z,69.72577
2022-11-05T01:09:08.534Z,69.28606
2022-11-05T01:14:10.174Z,70.30117
2022-11-05T01:19:11.885Z,71.59111
2022-11-05T01:24:13.607Z,74.19803
2022-11-05T01:29:15.336Z,73.08101
2022-11-05T01:34:17.108Z,73.09616
2022-11-05T01:39:18.783Z,72.1471
2022-11-05T01:44:20.583Z,70.5167
2022-11-05T01:49:22.266Z,74.57129
2022-11-05T01:54:23.925Z,72.80403
2022-11-05T01:59:25.587Z,73.0611
2022-11-05T02:04:27.257Z,70.57234
2022-11-05T02:09:28.895Z,72.04669
2022-11-05T02:14:30.559Z,71.23072
2022-11-05T02:19:32.224Z,71.17282
2022-11-05T02:24:33.870Z,70.58818
2022-11-05T02:29:35.492Z,72.12988
2022-11-05T02:34:37.122Z,70.65632
2022-11-05T02:39:38.806Z,72.36647
2022-11-05T02:44:40.483Z,73.06396
2022-11-05T02:49:42.179Z,72.38384
2022-11-05T02:54:43.840Z,72.97114
2022-11-05T02:59:45.449Z,73.54177
2022-11-05T03:04:47.075Z,70.81475
2022-11-05T03:09:48.751Z,70.07244
2022-11-05T03:14:50.398Z,70.89085
2022-11-05T03:19:52.011Z,69.7163
2022-11-05T03:24:53.797Z,71.94903
2022-11-05T03:29:55.452Z,73.78482
2022-11-05T03:34:57.072Z,73.81125
2022-11-05T03:39:58.948Z,74.73498
2022-11-05T03:45:01.022Z,73.17372
2022-11-05T03:50:02.629Z,74.35275
2022-11-05T03:55:04.331Z,74.96725
2022-11-05T04:00:05.979Z,75.15173
2022-11-05T04:05:07.602Z,73.17833
2022-11-05T04:10:09.293Z,74.54918
2022-11-05T04:15:10.933Z,73.40842
2022-11-05T04:20:12.600Z,72.72992
2022-11-05T04:25:14.284Z,75.12868
2022-11-05T04:30:15.994Z,75.66921
2022-11-05T04:35:17.594Z,75.14363
2022-11-05T04:40:19.257Z,74.61283
2022-11-05T04:45:20.935Z,73.39543
2022-11-05T04:50:22.606Z,74.3015
2022-11-05T04:55:24.314Z,72.3939
2022-11-05T05:00:25.998Z,74.32557
2022-11-05T05:05:27.693Z,74.62022
2022-11-05T05:10:29.344Z,74.42009
2022-11-05T05:15:30.979Z,75.2144
2022-11-05T05:20:32.732Z,75.91346
2022-11-05T05:25:34.385Z,74.79987
2022-11-05T05:30:36.031Z,74.61095
2022-11-05T05:35:37.645Z,75.73179
2022-11-05T05:40:39.186Z,74.47597
2022-11-05T05:45:40.825Z,73.22225
2022-11-05T05:50:42.441Z,74.88002
2022-11-05T05:55:44.130Z,74.83621
2022-11-05T06:00:45.780Z,72.08796
2022-11-05T06:05:47.595Z,73.8148
2022-11-05T06:10:49.304Z,74.33107
2022-11-05T06:15:51.061Z,74.65088
2022-11-05T06:20:52.764Z,74.81859
2022-11-05T06:25:54.512Z,77.69827
2022-11-05T06:30:56.118Z,78.05547
2022-11-05T06:35:57.717Z,75.16219
2022-11-05T06:40:59.511Z,75.0073
2022-11-05T06:46:01.212Z,75.02397
2022-11-05T06:51:03.006Z,80.64493
2022-11-05T06:56:04.645Z,80.0818
2022-11-05T07:01:06.365Z,77.64308
2022-11-05T07:06:08.039Z,78.23015
2022-11-05T07:11:09.691Z,77.65991
2022-11-05T07:16:11.439Z,78.20515
2022-11-05T07:21:13.206Z,78.41989
2022-11-05T07:26:14.860Z,79.07558
2022-11-05T07:31:16.556Z,75.90875
2022-11-05T07:36:18.281Z,76.9774
2022-11-05T07:41:19.977Z,77.84128
2022-11-05T07:46:21.585Z,75.75211
2022-11-05T07:51:23.229Z,76.31299
2022-11-05T07:56:24.926Z,77.35245
2022-11-05T08:01:26.787Z,76.0798
2022-11-05T08:06:28.686Z,73.25159
2022-11-05T08:11:30.414Z,74.60145
2022-11-05T08:16:32.070Z,76.31579
2022-11-05T08:21:33.856Z,81.25855
2022-11-05T08:26:35.573Z,76.33439
2022-11-05T08:31:37.179Z,74.23673
2022-11-05T08:36:38.841Z,72.36103
2022-11-05T08:41:40.468Z,74.27253
2022-11-05T08:46:42.367Z,80.31397
2022-11-05T08:51:43.987Z,78.00596
2022-11-05T08:56:45.644Z,76.58758
2022-11-05T09:01:47.438Z,75.14924
2022-11-05T09:06:49.168Z,73.94081
2022-11-05T09:12:10.980Z,78.80467
2022-11-05T09:17:13.367Z,78.4874
2022-11-05T09:22:15.046Z,78.76236
2022-11-05T09:27:17.364Z,80.13394
2022-11-05T09:32:19.082Z,78.361
2022-11-05T09:37:20.726Z,78.48298
2022-11-05T09:42:22.560Z,78.24011
2022-11-05T09:47:24.204Z,82.14446
2022-11-05T09:52:25.879Z,79.52973
2022-11-05T09:57:27.586Z,82.82975
2022-11-05T10:02:29.530Z,81.28963
2022-11-05T10:07:31.284Z,86.3978
2022-11-05T10:12:32.897Z,82.47386
2022-11-05T10:17:38.860Z,83.97489
2022-11-05T10:22:43.940Z,81.12337
2022-11-05T10:27:49.985Z,82.00801
2022-11-05T10:32:51.584Z,80.00884
2022-11-05T10:37:53.193Z,78.34003
2022-11-05T10:42:54.783Z,85.84882
2022-11-05T10:47:56.421Z,86.36287
2022-11-05T10:52:58.129Z,84.19382
2022-11-05T10:57:59.782Z,83.3885
2022-11-05T11:03:01.517Z,79.57249
2022-11-05T11:08:03.348Z,78.69226
2022-11-05T11:13:04.999Z,81.02373
2022-11-05T11:18:06.636Z,79.79505
2022-11-05T11:23:08.516Z,79.14762
2022-11-05T11:28:10.276Z,79.38473
2022-11-05T11:33:12.433Z,72.285
2022-11-05T11:38:14.251Z,66.06076
2022-11-05T11:43:15.929Z,72.09939
2022-11-05T11:48:17.577Z,76.82571
2022-11-05T11:53:19.272Z,77.90446
2022-11-05T11:58:21.008Z,72.10241
2022-11-05T12:03:22.771Z,73.79492
2022-11-05T12:08:24.588Z,66.72673
2022-11-05T12:13:26.291Z,69.37713
2022-11-05T12:18:27.928Z,66.73716
2022-11-05T12:23:29.649Z,57.29359
2022-11-05T12:28:31.322Z,52.93334
2022-11-05T12:33:32.992Z,52.73328
2022-11-05T12:38:34.666Z,46.4267
2022-11-05T12:43:36.627Z,56.36792
2022-11-05T12:48:38.318Z,47.37
2022-11-05T12:53:39.944Z,46.82802
2022-11-05T12:58:41.622Z,51.31668
2022-11-05T13:03:43.256Z,54.53203
2022-11-05T13:08:44.848Z,51.78633
2022-11-05T13:13:46.578Z,52.37438
2022-11-05T13:18:48.176Z,57.90178
2022-11-05T13:23:49.835Z,57.83364
2022-11-05T13:28:51.465Z,59.22312
2022-11-05T13:33:53.070Z,62.69992
2022-11-05T13:38:54.706Z,62.057
2022-11-05T13:43:56.375Z,64.21956
2022-11-05T13:48:57.979Z,66.84126
2022-11-05T13:53:59.711Z,67.18625
2022-11-05T13:59:01.613Z,67.53328
2022-11-05T14:04:03.326Z,60.68013
2022-11-05T14:09:05.043Z,64.55082
2022-11-05T14:14:06.678Z,63.51278
2022-11-05T14:19:08.435Z,63.43512
2022-11-05T14:24:10.128Z,63.91559
2022-11-05T14:29:11.790Z,63.34072
2022-11-05T14:34:13.651Z,57.77394
2022-11-05T14:39:15.323Z,52.7149
2022-11-05T14:44:16.998Z,51.31059
2022-11-05T14:49:18.598Z,48.92063
2022-11-05T14:54:20.262Z,53.3608
2022-11-05T14:59:21.893Z,57.00534
2022-11-05T15:04:23.552Z,60.02918
2022-11-05T15:09:25.224Z,60.95506
2022-11-05T15:14:26.858Z,60.7288
2022-11-05T15:19:28.513Z,54.75581
2022-11-05T15:24:30.276Z,62.81843
2022-11-05T15:29:31.948Z,56.68715
2022-11-05T15:34:33.707Z,61.67096
2022-11-05T15:39:35.308Z,60.08747
2022-11-05T15:44:37.061Z,61.52502
2022-11-05T15:49:38.827Z,61.17896
2022-11-05T15:54:40.436Z,52.62174
2022-11-05T15:59:42.177Z,54.94992
2022-11-05T16:04:43.962Z,54.98073
2022-11-05T16:09:45.559Z,55.31316
2022-11-05T16:19:47.519Z,59.02258
2022-11-05T16:24:49.294Z,60.55534
2022-11-05T16:29:50.978Z,59.51873
2022-11-05T16:34:52.584Z,58.31118
2022-11-05T16:39:54.278Z,67.8175
2022-11-05T16:44:55.995Z,70.70118
2022-11-05T16:54:58.104Z,68.235
2022-11-05T16:59:59.825Z,69.2655
2022-11-05T17:05:01.576Z,69.554
2022-11-05T17:10:03.251Z,69.30937
2022-11-05T17:15:04.970Z,70.97155
2022-11-05T17:20:06.654Z,73.64983
2022-11-05T17:25:08.312Z,70.95198
2022-11-05T17:30:09.998Z,72.3142
2022-11-05T17:35:11.924Z,70.27288
2022-11-05T17:40:13.586Z,69.2374
2022-11-05T17:45:15.292Z,67.71322
2022-11-05T17:50:16.941Z,67.9233
2022-11-05T17:55:18.873Z,67.14731
2022-11-05T18:00:20.559Z,68.34899
2022-11-05T18:05:22.225Z,62.58735
2022-11-05T18:10:24.700Z,66.32257
2022-11-05T18:15:26.317Z,68.48046
2022-11-05T18:20:28.010Z,69.57965
2022-11-05T18:25:29.691Z,68.28402
2022-11-05T18:30:31.379Z,66.67157
2022-11-05T18:35:33.190Z,68.29688
2022-11-05T18:40:35.203Z,68.17119
2022-11-05T18:45:37.051Z,66.27352
2022-11-05T18:50:38.779Z,67.95084
2022-11-05T18:55:40.782Z,65.08967
2022-11-05T19:00:42.597Z,64.06577
2022-11-05T19:05:44.344Z,62.40415
2022-11-05T19:10:46.104Z,61.5249
2022-11-05T19:15:47.763Z,61.75132
2022-11-05T19:20:49.466Z,63.61387
2022-11-05T19:25:51.188Z,60.32427
2022-11-05T19:30:52.857Z,62.56717
2022-11-05T19:35:54.481Z,60.68042
2022-11-05T19:40:56.238Z,60.4027
2022-11-05T19:45:57.895Z,60.34725
2022-11-05T19:50:59.661Z,61.11136
2022-11-05T19:56:01.264Z,62.16368
2022-11-05T20:01:03.014Z,64.18485
2022-11-05T20:06:04.738Z,62.97248
2022-11-05T20:11:06.901Z,64.45105
2022-11-05T20:16:08.612Z,63.23767
2022-11-05T20:21:10.246Z,62.04885
2022-11-05T20:26:12.018Z,61.4025
2022-11-05T20:31:13.709Z,60.36628
2022-11-05T20:36:15.333Z,59.48802
2022-11-05T20:41:17.017Z,57.86827
2022-11-05T20:46:19.176Z,58.90226
2022-11-05T20:51:20.868Z,59.18642
2022-11-05T20:56:22.792Z,60.06882
2022-11-05T21:01:24.540Z,59.83469
2022-11-05T21:06:26.207Z,56.30993
2022-11-05T21:11:28.242Z,57.35103
2022-11-05T21:16:29.941Z,58.57651
2022-11-05T21:21:31.580Z,58.91085
2022-11-05T21:26:33.207Z,58.26112
2022-11-05T21:31:34.860Z,59.00909
2022-11-05T21:36:36.535Z,59.87452
2022-11-05T21:41:38.422Z,62.13616
2022-11-05T21:46:40.140Z,59.58004
2022-11-05T21:51:41.857Z,57.9316
2022-11-05T21:56:43.578Z,61.66793
2022-11-05T22:01:45.511Z,57.71733
2022-11-05T22:06:47.336Z,53.52389
2022-11-05T22:11:49.230Z,57.90365
2022-11-05T22:16:50.877Z,56.95726
2022-11-05T22:21:52.950Z,59.71271
2022-11-05T22:26:54.636Z,59.6363
2022-11-05T22:31:57.061Z,59.47021
2022-11-05T22:36:58.784Z,59.33756
2022-11-05T22:42:04.331Z,54.39456
2022-11-05T22:47:10.704Z,52.99177
2022-11-05T22:52:12.319Z,55.07047
2022-11-05T22:57:14.379Z,54.80972
2022-11-05T23:02:16.472Z,55.20915
2022-11-05T23:07:20.969Z,53.70817
2022-11-05T23:12:26.331Z,57.28034
2022-11-05T23:17:27.997Z,60.11327
2022-11-05T23:22:29.905Z,58.50016
2022-11-05T23:27:31.677Z,56.46003
2022-11-05T23:32:33.376Z,59.04819
2022-11-05T23:37:35.056Z,56.07599
2022-11-05T23:42:36.812Z,56.79527
2022-11-05T23:47:38.694Z,59.38384
2022-11-05T23:52:40.388Z,61.11529
2022-11-05T23:57:42.255Z,61.0536
